sensor_id;sensor_type;location;lat;lon;timestamp;temperature;humidity
62259;DHT22;48241;48.824;10.102;2023-04-24T00:00:46;13.20;98.80
62259;DHT22;48241;48.824;10.102;2023-04-24T00:03:12;12.90;99.10
62259;DHT22;48241;48.824;10.102;2023-04-24T00:05:38;12.00;98.10
62259;DHT22;48241;48.824;10.102;2023-04-24T00:08:05;12.90;98.60
62259;DHT22;48241;48.824;10.102;2023-04-24T00:10:31;13.10;98.80
62259;DHT22;48241;48.824;10.102;2023-04-24T00:12:57;11.90;98.60
62259;DHT22;48241;48.824;10.102;2023-04-24T00:15:22;12.90;98.60
62259;DHT22;48241;48.824;10.102;2023-04-24T00:17:48;11.80;97.90
62259;DHT22;48241;48.824;10.102;2023-04-24T00:20:14;12.60;98.80
62259;DHT22;48241;48.824;10.102;2023-04-24T00:22:40;12.80;98.30
62259;DHT22;48241;48.824;10.102;2023-04-24T00:25:06;12.60;98.70
62259;DHT22;48241;48.824;10.102;2023-04-24T00:27:32;11.60;98.70
62259;DHT22;48241;48.824;10.102;2023-04-24T00:29:57;12.10;98.60
62259;DHT22;48241;48.824;10.102;2023-04-24T00:32:23;11.50;98.50
62259;DHT22;48241;48.824;10.102;2023-04-24T00:34:48;12.00;99.10
62259;DHT22;48241;48.824;10.102;2023-04-24T00:37:14;12.10;99.50
62259;DHT22;48241;48.824;10.102;2023-04-24T00:39:40;12.60;99.30
62259;DHT22;48241;48.824;10.102;2023-04-24T00:42:06;11.20;98.30
62259;DHT22;48241;48.824;10.102;2023-04-24T00:44:33;11.40;96.40
62259;DHT22;48241;48.824;10.102;2023-04-24T00:46:59;11.40;98.00
62259;DHT22;48241;48.824;10.102;2023-04-24T00:49:26;11.00;97.80
62259;DHT22;48241;48.824;10.102;2023-04-24T00:51:52;11.90;98.30
62259;DHT22;48241;48.824;10.102;2023-04-24T00:54:19;12.10;98.30
62259;DHT22;48241;48.824;10.102;2023-04-24T00:56:46;11.60;98.20
62259;DHT22;48241;48.824;10.102;2023-04-24T00:59:13;12.50;98.60
62259;DHT22;48241;48.824;10.102;2023-04-24T01:01:40;12.00;97.30
62259;DHT22;48241;48.824;10.102;2023-04-24T01:04:09;11.70;96.90
62259;DHT22;48241;48.824;10.102;2023-04-24T01:06:38;12.00;98.00
62259;DHT22;48241;48.824;10.102;2023-04-24T01:09:05;12.40;97.70
62259;DHT22;48241;48.824;10.102;2023-04-24T01:11:31;12.80;98.30
62259;DHT22;48241;48.824;10.102;2023-04-24T01:13:57;11.60;99.00
62259;DHT22;48241;48.824;10.102;2023-04-24T01:16:23;11.50;98.30
62259;DHT22;48241;48.824;10.102;2023-04-24T01:18:49;12.00;98.60
62259;DHT22;48241;48.824;10.102;2023-04-24T01:21:15;11.40;98.90
62259;DHT22;48241;48.824;10.102;2023-04-24T01:23:45;11.60;98.10
62259;DHT22;48241;48.824;10.102;2023-04-24T01:26:12;11.30;98.10
62259;DHT22;48241;48.824;10.102;2023-04-24T01:28:38;11.40;98.50
62259;DHT22;48241;48.824;10.102;2023-04-24T01:31:03;11.90;98.10
62259;DHT22;48241;48.824;10.102;2023-04-24T01:33:29;11.40;97.90
62259;DHT22;48241;48.824;10.102;2023-04-24T01:35:55;11.90;97.20
62259;DHT22;48241;48.824;10.102;2023-04-24T01:38:20;11.70;97.50
62259;DHT22;48241;48.824;10.102;2023-04-24T01:40:46;11.60;97.20
62259;DHT22;48241;48.824;10.102;2023-04-24T01:43:13;11.50;98.20
62259;DHT22;48241;48.824;10.102;2023-04-24T01:45:38;11.70;96.20
62259;DHT22;48241;48.824;10.102;2023-04-24T01:48:04;11.80;96.70
62259;DHT22;48241;48.824;10.102;2023-04-24T01:50:30;12.00;95.30
62259;DHT22;48241;48.824;10.102;2023-04-24T01:52:56;11.80;96.90
62259;DHT22;48241;48.824;10.102;2023-04-24T01:55:21;11.70;97.00
62259;DHT22;48241;48.824;10.102;2023-04-24T01:57:47;11.90;97.40
62259;DHT22;48241;48.824;10.102;2023-04-24T02:00:13;12.00;97.60
62259;DHT22;48241;48.824;10.102;2023-04-24T02:02:40;11.50;96.90
62259;DHT22;48241;48.824;10.102;2023-04-24T02:05:07;11.60;97.10
62259;DHT22;48241;48.824;10.102;2023-04-24T02:07:33;11.90;96.90
62259;DHT22;48241;48.824;10.102;2023-04-24T02:09:59;11.80;96.80
62259;DHT22;48241;48.824;10.102;2023-04-24T02:12:24;11.90;96.30
62259;DHT22;48241;48.824;10.102;2023-04-24T02:14:50;12.00;95.80
62259;DHT22;48241;48.824;10.102;2023-04-24T02:17:17;11.90;96.50
62259;DHT22;48241;48.824;10.102;2023-04-24T02:19:44;11.90;96.50
62259;DHT22;48241;48.824;10.102;2023-04-24T02:22:10;11.90;96.20
62259;DHT22;48241;48.824;10.102;2023-04-24T02:24:36;11.70;96.70
62259;DHT22;48241;48.824;10.102;2023-04-24T02:27:02;12.10;96.10
62259;DHT22;48241;48.824;10.102;2023-04-24T02:29:28;11.60;96.00
62259;DHT22;48241;48.824;10.102;2023-04-24T02:31:53;11.70;96.80
62259;DHT22;48241;48.824;10.102;2023-04-24T02:34:19;11.90;96.90
62259;DHT22;48241;48.824;10.102;2023-04-24T02:36:45;11.80;97.20
62259;DHT22;48241;48.824;10.102;2023-04-24T02:39:10;12.10;97.80
62259;DHT22;48241;48.824;10.102;2023-04-24T02:41:36;11.50;97.80
62259;DHT22;48241;48.824;10.102;2023-04-24T02:44:02;11.20;97.70
62259;DHT22;48241;48.824;10.102;2023-04-24T02:46:27;11.00;98.10
62259;DHT22;48241;48.824;10.102;2023-04-24T02:48:53;11.10;98.10
62259;DHT22;48241;48.824;10.102;2023-04-24T02:51:18;11.00;98.10
62259;DHT22;48241;48.824;10.102;2023-04-24T02:53:44;11.10;99.00
62259;DHT22;48241;48.824;10.102;2023-04-24T02:56:10;11.10;98.10
62259;DHT22;48241;48.824;10.102;2023-04-24T02:58:37;11.20;98.80
62259;DHT22;48241;48.824;10.102;2023-04-24T03:01:03;11.10;98.70
62259;DHT22;48241;48.824;10.102;2023-04-24T03:03:28;11.00;98.40
62259;DHT22;48241;48.824;10.102;2023-04-24T03:05:54;10.90;98.10
62259;DHT22;48241;48.824;10.102;2023-04-24T03:08:20;11.40;98.60
62259;DHT22;48241;48.824;10.102;2023-04-24T03:10:46;11.00;98.50
62259;DHT22;48241;48.824;10.102;2023-04-24T03:13:12;10.90;98.60
62259;DHT22;48241;48.824;10.102;2023-04-24T03:15:37;11.10;98.60
62259;DHT22;48241;48.824;10.102;2023-04-24T03:18:03;10.90;98.50
62259;DHT22;48241;48.824;10.102;2023-04-24T03:20:28;10.80;98.60
62259;DHT22;48241;48.824;10.102;2023-04-24T03:22:54;11.00;98.30
62259;DHT22;48241;48.824;10.102;2023-04-24T03:25:20;10.80;98.70
62259;DHT22;48241;48.824;10.102;2023-04-24T03:27:45;11.10;98.60
62259;DHT22;48241;48.824;10.102;2023-04-24T03:30:11;11.00;98.30
62259;DHT22;48241;48.824;10.102;2023-04-24T03:32:37;11.10;97.80
62259;DHT22;48241;48.824;10.102;2023-04-24T03:35:05;11.30;98.20
62259;DHT22;48241;48.824;10.102;2023-04-24T03:37:31;11.10;98.20
62259;DHT22;48241;48.824;10.102;2023-04-24T03:39:57;11.70;97.90
62259;DHT22;48241;48.824;10.102;2023-04-24T03:42:22;11.80;97.90
62259;DHT22;48241;48.824;10.102;2023-04-24T03:44:48;11.30;97.60
62259;DHT22;48241;48.824;10.102;2023-04-24T03:47:13;11.70;98.20
62259;DHT22;48241;48.824;10.102;2023-04-24T03:49:39;11.30;97.60
62259;DHT22;48241;48.824;10.102;2023-04-24T03:52:05;11.10;97.90
62259;DHT22;48241;48.824;10.102;2023-04-24T03:54:30;11.80;98.20
62259;DHT22;48241;48.824;10.102;2023-04-24T03:56:56;11.40;97.80
62259;DHT22;48241;48.824;10.102;2023-04-24T03:59:21;11.90;97.20
62259;DHT22;48241;48.824;10.102;2023-04-24T04:01:47;11.70;96.80
62259;DHT22;48241;48.824;10.102;2023-04-24T04:04:12;11.70;96.60
62259;DHT22;48241;48.824;10.102;2023-04-24T04:06:38;11.80;96.40
62259;DHT22;48241;48.824;10.102;2023-04-24T04:09:04;12.00;96.50
62259;DHT22;48241;48.824;10.102;2023-04-24T04:11:29;12.00;96.40
62259;DHT22;48241;48.824;10.102;2023-04-24T04:13:55;11.90;95.90
62259;DHT22;48241;48.824;10.102;2023-04-24T04:16:22;11.90;96.10
62259;DHT22;48241;48.824;10.102;2023-04-24T04:18:47;12.00;96.20
62259;DHT22;48241;48.824;10.102;2023-04-24T04:21:13;12.00;96.30
62259;DHT22;48241;48.824;10.102;2023-04-24T04:23:39;12.30;95.90
62259;DHT22;48241;48.824;10.102;2023-04-24T04:26:05;12.60;96.00
62259;DHT22;48241;48.824;10.102;2023-04-24T04:28:31;12.20;95.50
62259;DHT22;48241;48.824;10.102;2023-04-24T04:30:57;12.20;95.40
62259;DHT22;48241;48.824;10.102;2023-04-24T04:33:26;12.20;95.00
62259;DHT22;48241;48.824;10.102;2023-04-24T04:35:52;12.10;95.40
62259;DHT22;48241;48.824;10.102;2023-04-24T04:38:18;12.70;96.10
62259;DHT22;48241;48.824;10.102;2023-04-24T04:40:45;12.30;95.00
62259;DHT22;48241;48.824;10.102;2023-04-24T04:43:11;12.90;94.90
62259;DHT22;48241;48.824;10.102;2023-04-24T04:45:38;12.90;95.50
62259;DHT22;48241;48.824;10.102;2023-04-24T04:48:05;12.20;94.80
62259;DHT22;48241;48.824;10.102;2023-04-24T04:50:34;12.10;95.00
62259;DHT22;48241;48.824;10.102;2023-04-24T04:52:59;12.30;94.60
62259;DHT22;48241;48.824;10.102;2023-04-24T04:55:25;13.80;95.40
62259;DHT22;48241;48.824;10.102;2023-04-24T04:57:51;13.10;94.70
62259;DHT22;48241;48.824;10.102;2023-04-24T05:00:17;13.30;93.60
62259;DHT22;48241;48.824;10.102;2023-04-24T05:02:43;12.70;93.40
62259;DHT22;48241;48.824;10.102;2023-04-24T05:05:09;13.30;93.40
62259;DHT22;48241;48.824;10.102;2023-04-24T05:07:35;13.20;93.90
62259;DHT22;48241;48.824;10.102;2023-04-24T05:10:01;13.40;93.90
62259;DHT22;48241;48.824;10.102;2023-04-24T05:12:26;12.90;92.80
62259;DHT22;48241;48.824;10.102;2023-04-24T05:17:21;11.90;95.70
62259;DHT22;48241;48.824;10.102;2023-04-24T05:19:47;12.50;95.40
62259;DHT22;48241;48.824;10.102;2023-04-24T05:22:13;12.20;94.90
62259;DHT22;48241;48.824;10.102;2023-04-24T05:24:39;12.30;94.90
62259;DHT22;48241;48.824;10.102;2023-04-24T05:27:04;12.30;95.00
62259;DHT22;48241;48.824;10.102;2023-04-24T05:29:31;12.10;94.90
62259;DHT22;48241;48.824;10.102;2023-04-24T05:31:57;12.20;95.60
62259;DHT22;48241;48.824;10.102;2023-04-24T05:34:23;12.90;94.80
62259;DHT22;48241;48.824;10.102;2023-04-24T05:36:49;12.60;94.80
62259;DHT22;48241;48.824;10.102;2023-04-24T05:39:16;12.80;94.40
62259;DHT22;48241;48.824;10.102;2023-04-24T05:41:42;12.90;93.70
62259;DHT22;48241;48.824;10.102;2023-04-24T05:44:07;12.50;94.60
62259;DHT22;48241;48.824;10.102;2023-04-24T05:46:33;12.20;96.20
62259;DHT22;48241;48.824;10.102;2023-04-24T05:48:58;11.80;94.10
62259;DHT22;48241;48.824;10.102;2023-04-24T05:51:24;11.50;95.40
62259;DHT22;48241;48.824;10.102;2023-04-24T05:53:51;11.20;96.10
62259;DHT22;48241;48.824;10.102;2023-04-24T05:56:17;11.20;96.00
62259;DHT22;48241;48.824;10.102;2023-04-24T05:58:43;11.20;95.80
62259;DHT22;48241;48.824;10.102;2023-04-24T06:01:08;11.30;95.70
62259;DHT22;48241;48.824;10.102;2023-04-24T06:03:34;11.70;95.80
62259;DHT22;48241;48.824;10.102;2023-04-24T06:06:00;10.90;96.50
62259;DHT22;48241;48.824;10.102;2023-04-24T06:08:26;11.50;97.20
62259;DHT22;48241;48.824;10.102;2023-04-24T06:10:51;10.80;96.20
62259;DHT22;48241;48.824;10.102;2023-04-24T06:13:17;11.20;96.90
62259;DHT22;48241;48.824;10.102;2023-04-24T06:15:43;11.30;97.10
62259;DHT22;48241;48.824;10.102;2023-04-24T06:18:09;11.10;96.60
62259;DHT22;48241;48.824;10.102;2023-04-24T06:20:38;11.20;96.10
62259;DHT22;48241;48.824;10.102;2023-04-24T06:23:03;11.20;96.00
62259;DHT22;48241;48.824;10.102;2023-04-24T06:25:29;11.30;96.60
62259;DHT22;48241;48.824;10.102;2023-04-24T06:27:55;11.60;94.50
62259;DHT22;48241;48.824;10.102;2023-04-24T06:30:22;11.90;94.30
62259;DHT22;48241;48.824;10.102;2023-04-24T06:32:47;12.20;93.50
62259;DHT22;48241;48.824;10.102;2023-04-24T06:35:13;12.10;93.10
62259;DHT22;48241;48.824;10.102;2023-04-24T06:37:39;11.70;92.80
62259;DHT22;48241;48.824;10.102;2023-04-24T06:40:06;12.10;93.40
62259;DHT22;48241;48.824;10.102;2023-04-24T06:42:32;12.30;93.00
62259;DHT22;48241;48.824;10.102;2023-04-24T06:44:57;12.40;92.60
62259;DHT22;48241;48.824;10.102;2023-04-24T06:47:23;12.60;92.60
62259;DHT22;48241;48.824;10.102;2023-04-24T06:49:48;12.90;92.40
62259;DHT22;48241;48.824;10.102;2023-04-24T06:52:16;12.80;91.80
62259;DHT22;48241;48.824;10.102;2023-04-24T06:54:42;12.70;92.40
62259;DHT22;48241;48.824;10.102;2023-04-24T06:57:08;12.90;92.90
62259;DHT22;48241;48.824;10.102;2023-04-24T06:59:33;13.30;92.40
62259;DHT22;48241;48.824;10.102;2023-04-24T07:01:59;13.30;91.40
62259;DHT22;48241;48.824;10.102;2023-04-24T07:04:25;13.50;91.00
62259;DHT22;48241;48.824;10.102;2023-04-24T07:06:50;14.80;90.90
62259;DHT22;48241;48.824;10.102;2023-04-24T07:09:16;15.10;88.90
62259;DHT22;48241;48.824;10.102;2023-04-24T07:11:44;15.10;87.80
62259;DHT22;48241;48.824;10.102;2023-04-24T07:14:10;15.30;85.10
62259;DHT22;48241;48.824;10.102;2023-04-24T07:16:35;15.50;84.10
62259;DHT22;48241;48.824;10.102;2023-04-24T07:19:01;15.00;85.10
62259;DHT22;48241;48.824;10.102;2023-04-24T07:21:26;15.00;85.60
62259;DHT22;48241;48.824;10.102;2023-04-24T07:23:53;15.30;84.80
62259;DHT22;48241;48.824;10.102;2023-04-24T07:26:19;15.80;82.50
62259;DHT22;48241;48.824;10.102;2023-04-24T07:28:46;15.90;81.50
62259;DHT22;48241;48.824;10.102;2023-04-24T07:31:11;16.80;80.80
62259;DHT22;48241;48.824;10.102;2023-04-24T07:33:37;18.30;75.30
62259;DHT22;48241;48.824;10.102;2023-04-24T07:36:03;18.10;72.20
62259;DHT22;48241;48.824;10.102;2023-04-24T07:38:30;18.50;74.00
62259;DHT22;48241;48.824;10.102;2023-04-24T07:40:55;19.50;67.40
62259;DHT22;48241;48.824;10.102;2023-04-24T07:43:21;20.20;66.40
62259;DHT22;48241;48.824;10.102;2023-04-24T07:45:49;20.30;64.90
62259;DHT22;48241;48.824;10.102;2023-04-24T07:48:15;20.90;65.30
62259;DHT22;48241;48.824;10.102;2023-04-24T07:50:42;21.90;60.80
62259;DHT22;48241;48.824;10.102;2023-04-24T07:53:07;22.10;58.10
62259;DHT22;48241;48.824;10.102;2023-04-24T07:55:33;21.00;59.20
62259;DHT22;48241;48.824;10.102;2023-04-24T07:57:59;21.50;60.50
62259;DHT22;48241;48.824;10.102;2023-04-24T08:00:24;21.40;58.90
62259;DHT22;48241;48.824;10.102;2023-04-24T08:02:50;20.60;59.90
62259;DHT22;48241;48.824;10.102;2023-04-24T08:05:16;19.70;62.10
62259;DHT22;48241;48.824;10.102;2023-04-24T08:07:41;18.70;63.80
62259;DHT22;48241;48.824;10.102;2023-04-24T08:10:10;18.40;64.80
62259;DHT22;48241;48.824;10.102;2023-04-24T08:12:36;18.80;64.90
62259;DHT22;48241;48.824;10.102;2023-04-24T08:15:02;18.70;63.60
62259;DHT22;48241;48.824;10.102;2023-04-24T08:17:27;19.70;63.60
62259;DHT22;48241;48.824;10.102;2023-04-24T08:19:53;21.20;59.60
62259;DHT22;48241;48.824;10.102;2023-04-24T08:22:29;22.10;56.50
62259;DHT22;48241;48.824;10.102;2023-04-24T08:24:54;24.10;52.90
62259;DHT22;48241;48.824;10.102;2023-04-24T08:27:21;24.20;51.90
62259;DHT22;48241;48.824;10.102;2023-04-24T08:29:47;24.20;48.70
62259;DHT22;48241;48.824;10.102;2023-04-24T08:32:12;23.40;51.50
62259;DHT22;48241;48.824;10.102;2023-04-24T08:34:38;24.50;51.20
62259;DHT22;48241;48.824;10.102;2023-04-24T08:37:03;26.20;47.50
62259;DHT22;48241;48.824;10.102;2023-04-24T08:39:29;24.70;46.80
62259;DHT22;48241;48.824;10.102;2023-04-24T08:41:55;22.40;51.00
62259;DHT22;48241;48.824;10.102;2023-04-24T08:44:21;20.20;55.40
62259;DHT22;48241;48.824;10.102;2023-04-24T08:46:50;18.10;62.40
62259;DHT22;48241;48.824;10.102;2023-04-24T08:49:17;16.30;66.50
62259;DHT22;48241;48.824;10.102;2023-04-24T08:51:44;14.70;72.80
62259;DHT22;48241;48.824;10.102;2023-04-24T08:54:12;14.00;78.70
62259;DHT22;48241;48.824;10.102;2023-04-24T08:56:38;13.90;78.40
62259;DHT22;48241;48.824;10.102;2023-04-24T08:59:06;13.80;78.40
62259;DHT22;48241;48.824;10.102;2023-04-24T09:01:32;14.00;78.40
62259;DHT22;48241;48.824;10.102;2023-04-24T09:04:04;15.60;76.50
62259;DHT22;48241;48.824;10.102;2023-04-24T09:06:31;17.10;70.10
62259;DHT22;48241;48.824;10.102;2023-04-24T09:09:00;17.90;66.60
62259;DHT22;48241;48.824;10.102;2023-04-24T09:11:26;19.80;61.80
62259;DHT22;48241;48.824;10.102;2023-04-24T09:13:53;21.00;58.80
62259;DHT22;48241;48.824;10.102;2023-04-24T09:16:20;21.80;55.80
62259;DHT22;48241;48.824;10.102;2023-04-24T09:18:46;21.90;54.90
62259;DHT22;48241;48.824;10.102;2023-04-24T09:21:11;21.40;55.80
62259;DHT22;48241;48.824;10.102;2023-04-24T09:23:37;21.70;56.20
62259;DHT22;48241;48.824;10.102;2023-04-24T09:26:04;21.70;57.50
62259;DHT22;48241;48.824;10.102;2023-04-24T09:28:38;21.10;55.30
62259;DHT22;48241;48.824;10.102;2023-04-24T09:31:12;19.50;57.40
62259;DHT22;48241;48.824;10.102;2023-04-24T09:33:39;17.80;61.00
62259;DHT22;48241;48.824;10.102;2023-04-24T09:36:05;16.50;63.00
62259;DHT22;48241;48.824;10.102;2023-04-24T09:38:40;15.60;68.40
62259;DHT22;48241;48.824;10.102;2023-04-24T09:41:07;14.80;69.60
62259;DHT22;48241;48.824;10.102;2023-04-24T09:43:34;14.90;69.50
62259;DHT22;48241;48.824;10.102;2023-04-24T09:46:06;15.00;69.10
62259;DHT22;48241;48.824;10.102;2023-04-24T09:48:37;15.60;69.40
62259;DHT22;48241;48.824;10.102;2023-04-24T09:51:04;18.20;64.60
62259;DHT22;48241;48.824;10.102;2023-04-24T09:53:32;20.90;59.40
62259;DHT22;48241;48.824;10.102;2023-04-24T09:56:11;21.70;53.60
62259;DHT22;48241;48.824;10.102;2023-04-24T09:58:38;21.60;53.80
62259;DHT22;48241;48.824;10.102;2023-04-24T10:01:04;21.20;52.70
62259;DHT22;48241;48.824;10.102;2023-04-24T10:03:31;21.40;52.70
62259;DHT22;48241;48.824;10.102;2023-04-24T10:06:02;21.90;49.10
62259;DHT22;48241;48.824;10.102;2023-04-24T10:08:34;21.80;50.10
62259;DHT22;48241;48.824;10.102;2023-04-24T10:11:00;22.60;50.00
62259;DHT22;48241;48.824;10.102;2023-04-24T10:13:27;22.30;47.20
62259;DHT22;48241;48.824;10.102;2023-04-24T10:15:53;20.70;49.60
62259;DHT22;48241;48.824;10.102;2023-04-24T10:18:20;19.20;51.70
62259;DHT22;48241;48.824;10.102;2023-04-24T10:20:46;18.20;54.90
62259;DHT22;48241;48.824;10.102;2023-04-24T10:23:12;16.90;57.90
62259;DHT22;48241;48.824;10.102;2023-04-24T10:25:38;16.10;62.80
62259;DHT22;48241;48.824;10.102;2023-04-24T10:28:05;15.50;67.80
62259;DHT22;48241;48.824;10.102;2023-04-24T10:30:32;15.00;68.90
62259;DHT22;48241;48.824;10.102;2023-04-24T10:33:05;15.30;73.60
62259;DHT22;48241;48.824;10.102;2023-04-24T10:35:34;15.90;72.80
62259;DHT22;48241;48.824;10.102;2023-04-24T10:38:09;16.30;69.40
62259;DHT22;48241;48.824;10.102;2023-04-24T10:40:37;16.30;67.10
62259;DHT22;48241;48.824;10.102;2023-04-24T10:43:04;16.00;65.20
62259;DHT22;48241;48.824;10.102;2023-04-24T10:45:36;15.80;67.90
62259;DHT22;48241;48.824;10.102;2023-04-24T10:48:04;15.50;66.60
62259;DHT22;48241;48.824;10.102;2023-04-24T10:50:50;15.50;68.20
62259;DHT22;48241;48.824;10.102;2023-04-24T10:53:21;15.50;65.20
62259;DHT22;48241;48.824;10.102;2023-04-24T10:55:50;15.90;65.10
62259;DHT22;48241;48.824;10.102;2023-04-24T10:58:23;16.20;63.00
62259;DHT22;48241;48.824;10.102;2023-04-24T11:00:56;16.00;63.90
62259;DHT22;48241;48.824;10.102;2023-04-24T11:11:00;16.30;61.00
62259;DHT22;48241;48.824;10.102;2023-04-24T11:14:00;17.00;62.50
62259;DHT22;48241;48.824;10.102;2023-04-24T11:16:38;17.10;58.80
62259;DHT22;48241;48.824;10.102;2023-04-24T11:21:59;16.30;60.50
62259;DHT22;48241;48.824;10.102;2023-04-24T11:29:44;15.30;62.10
62259;DHT22;48241;48.824;10.102;2023-04-24T11:35:06;15.80;62.80
62259;DHT22;48241;48.824;10.102;2023-04-24T11:37:36;16.50;62.30
62259;DHT22;48241;48.824;10.102;2023-04-24T11:40:03;16.40;57.70
62259;DHT22;48241;48.824;10.102;2023-04-24T11:42:35;16.20;58.10
62259;DHT22;48241;48.824;10.102;2023-04-24T11:45:00;16.10;57.80
62259;DHT22;48241;48.824;10.102;2023-04-24T11:47:33;15.80;57.30
62259;DHT22;48241;48.824;10.102;2023-04-24T11:49:59;15.80;58.40
62259;DHT22;48241;48.824;10.102;2023-04-24T11:52:26;16.00;58.10
62259;DHT22;48241;48.824;10.102;2023-04-24T11:54:52;15.80;58.00
62259;DHT22;48241;48.824;10.102;2023-04-24T11:57:21;15.90;58.20
62259;DHT22;48241;48.824;10.102;2023-04-24T11:59:48;15.90;58.00
62259;DHT22;48241;48.824;10.102;2023-04-24T12:02:27;15.90;57.00
62259;DHT22;48241;48.824;10.102;2023-04-24T12:04:55;15.60;57.10
62259;DHT22;48241;48.824;10.102;2023-04-24T12:07:22;16.00;60.20
62259;DHT22;48241;48.824;10.102;2023-04-24T12:09:58;16.40;57.20
62259;DHT22;48241;48.824;10.102;2023-04-24T12:12:26;16.70;55.20
62259;DHT22;48241;48.824;10.102;2023-04-24T12:14:54;16.40;55.80
62259;DHT22;48241;48.824;10.102;2023-04-24T12:17:31;16.40;57.50
62259;DHT22;48241;48.824;10.102;2023-04-24T12:20:07;16.40;56.50
62259;DHT22;48241;48.824;10.102;2023-04-24T12:22:52;16.00;57.00
62259;DHT22;48241;48.824;10.102;2023-04-24T12:25:21;15.90;57.50
62259;DHT22;48241;48.824;10.102;2023-04-24T12:27:53;15.70;59.80
62259;DHT22;48241;48.824;10.102;2023-04-24T12:30:20;15.70;60.00
62259;DHT22;48241;48.824;10.102;2023-04-24T12:32:47;15.70;61.70
62259;DHT22;48241;48.824;10.102;2023-04-24T12:35:18;15.80;61.70
62259;DHT22;48241;48.824;10.102;2023-04-24T12:37:44;16.30;59.10
62259;DHT22;48241;48.824;10.102;2023-04-24T12:40:11;15.80;57.90
62259;DHT22;48241;48.824;10.102;2023-04-24T12:42:45;15.50;58.40
62259;DHT22;48241;48.824;10.102;2023-04-24T12:45:11;15.50;60.10
62259;DHT22;48241;48.824;10.102;2023-04-24T12:47:38;15.40;60.10
62259;DHT22;48241;48.824;10.102;2023-04-24T12:50:05;15.00;62.50
62259;DHT22;48241;48.824;10.102;2023-04-24T12:52:31;14.30;63.70
62259;DHT22;48241;48.824;10.102;2023-04-24T12:54:59;14.70;63.50
62259;DHT22;48241;48.824;10.102;2023-04-24T12:57:26;15.10;64.60
62259;DHT22;48241;48.824;10.102;2023-04-24T12:59:56;15.20;63.80
62259;DHT22;48241;48.824;10.102;2023-04-24T13:02:22;15.50;62.00
62259;DHT22;48241;48.824;10.102;2023-04-24T13:04:49;15.70;61.00
62259;DHT22;48241;48.824;10.102;2023-04-24T13:07:15;15.60;59.60
62259;DHT22;48241;48.824;10.102;2023-04-24T13:09:41;15.20;59.40
62259;DHT22;48241;48.824;10.102;2023-04-24T13:12:08;14.50;61.00
62259;DHT22;48241;48.824;10.102;2023-04-24T13:14:34;14.50;64.00
62259;DHT22;48241;48.824;10.102;2023-04-24T13:17:00;13.90;61.20
62259;DHT22;48241;48.824;10.102;2023-04-24T13:19:26;14.40;64.50
62259;DHT22;48241;48.824;10.102;2023-04-24T13:21:56;13.70;68.10
62259;DHT22;48241;48.824;10.102;2023-04-24T13:24:23;12.70;70.30
62259;DHT22;48241;48.824;10.102;2023-04-24T13:26:54;12.80;72.10
62259;DHT22;48241;48.824;10.102;2023-04-24T13:29:22;12.90;71.70
62259;DHT22;48241;48.824;10.102;2023-04-24T13:31:51;13.10;74.80
62259;DHT22;48241;48.824;10.102;2023-04-24T13:34:17;14.10;71.80
62259;DHT22;48241;48.824;10.102;2023-04-24T13:36:43;14.40;70.70
62259;DHT22;48241;48.824;10.102;2023-04-24T13:39:10;15.30;69.50
62259;DHT22;48241;48.824;10.102;2023-04-24T13:41:36;15.70;65.70
62259;DHT22;48241;48.824;10.102;2023-04-24T13:44:02;15.80;64.10
62259;DHT22;48241;48.824;10.102;2023-04-24T13:46:28;15.80;60.40
62259;DHT22;48241;48.824;10.102;2023-04-24T13:48:54;15.80;61.40
62259;DHT22;48241;48.824;10.102;2023-04-24T13:51:20;15.70;60.90
62259;DHT22;48241;48.824;10.102;2023-04-24T13:53:45;16.20;61.70
62259;DHT22;48241;48.824;10.102;2023-04-24T13:56:11;16.30;63.10
62259;DHT22;48241;48.824;10.102;2023-04-24T13:58:38;15.70;61.90
62259;DHT22;48241;48.824;10.102;2023-04-24T14:01:04;15.20;62.10
62259;DHT22;48241;48.824;10.102;2023-04-24T14:03:29;14.70;62.60
62259;DHT22;48241;48.824;10.102;2023-04-24T14:05:55;14.40;62.90
62259;DHT22;48241;48.824;10.102;2023-04-24T14:08:20;14.40;62.80
62259;DHT22;48241;48.824;10.102;2023-04-24T14:10:46;15.00;64.80
62259;DHT22;48241;48.824;10.102;2023-04-24T14:13:12;14.70;61.40
62259;DHT22;48241;48.824;10.102;2023-04-24T14:15:38;14.60;62.00
62259;DHT22;48241;48.824;10.102;2023-04-24T14:18:04;14.80;62.70
62259;DHT22;48241;48.824;10.102;2023-04-24T14:20:30;14.80;60.70
62259;DHT22;48241;48.824;10.102;2023-04-24T14:22:56;14.80;62.00
62259;DHT22;48241;48.824;10.102;2023-04-24T14:25:24;14.30;64.30
62259;DHT22;48241;48.824;10.102;2023-04-24T14:27:50;14.50;66.70
62259;DHT22;48241;48.824;10.102;2023-04-24T14:30:15;13.10;68.40
62259;DHT22;48241;48.824;10.102;2023-04-24T14:32:41;13.20;74.10
62259;DHT22;48241;48.824;10.102;2023-04-24T14:35:07;12.40;76.30
62259;DHT22;48241;48.824;10.102;2023-04-24T14:37:33;12.00;78.40
62259;DHT22;48241;48.824;10.102;2023-04-24T14:39:58;12.00;78.90
62259;DHT22;48241;48.824;10.102;2023-04-24T14:42:31;12.40;80.60
62259;DHT22;48241;48.824;10.102;2023-04-24T14:44:57;12.60;78.90
62259;DHT22;48241;48.824;10.102;2023-04-24T14:47:22;13.00;79.90
62259;DHT22;48241;48.824;10.102;2023-04-24T14:49:48;13.90;76.50
62259;DHT22;48241;48.824;10.102;2023-04-24T14:52:14;13.80;73.40
62259;DHT22;48241;48.824;10.102;2023-04-24T14:54:47;13.30;74.40
62259;DHT22;48241;48.824;10.102;2023-04-24T14:57:12;13.70;74.60
62259;DHT22;48241;48.824;10.102;2023-04-24T14:59:38;13.80;74.20
62259;DHT22;48241;48.824;10.102;2023-04-24T15:02:04;14.80;71.30
62259;DHT22;48241;48.824;10.102;2023-04-24T15:04:30;14.30;71.10
62259;DHT22;48241;48.824;10.102;2023-04-24T15:06:56;14.30;70.20
62259;DHT22;48241;48.824;10.102;2023-04-24T15:09:23;15.20;71.00
62259;DHT22;48241;48.824;10.102;2023-04-24T15:11:49;14.70;70.40
62259;DHT22;48241;48.824;10.102;2023-04-24T15:14:16;14.10;73.20
62259;DHT22;48241;48.824;10.102;2023-04-24T15:16:42;13.50;75.20
62259;DHT22;48241;48.824;10.102;2023-04-24T15:19:08;12.40;82.00
62259;DHT22;48241;48.824;10.102;2023-04-24T15:21:35;13.00;85.90
62259;DHT22;48241;48.824;10.102;2023-04-24T15:24:00;11.40;87.10
62259;DHT22;48241;48.824;10.102;2023-04-24T15:26:26;11.20;89.80
62259;DHT22;48241;48.824;10.102;2023-04-24T15:28:52;11.40;89.60
62259;DHT22;48241;48.824;10.102;2023-04-24T15:31:18;11.50;86.70
62259;DHT22;48241;48.824;10.102;2023-04-24T15:33:44;11.40;86.90